Jacksonville, NC

05:26 EDT le 16 septembre 2014 (GMT -0400)
Ellis | Change Station
CLOSE
Current Station
Aéroport
Location: Jacksonville,
Altitude: 95 ft
Stations météo à proximité

Alt. 95 ft 34.83 °N, 77.62 °W | Updated 31 minutes ago

Couvert
Couvert
70 ° F
Paraît 70 ° F
N
0
Vent Variable Vent de Nord

Aujourd'hui
Haut(e) -- | Bas -- ° F
--% Risque de précip.
Hier
Haut(e) -- | Bas -- ° F
Precip. -- pouce
6:53 AM 7:15 PM
Lune gibbeuse décroissante, 47% visible
Pression 30.05 pouce
Visibilité 7.0 Miles terrestres
Nuages Couvert 2000 ft
Point de rosée 64 ° F
Humidité 83%
Précipitations 0.00 pouce
Profondeur de la couche neigeuse Non disponible.
UV 0 sur 12
Pollen 6.10 sur 12
Qualité de l'air Non disponible.
Flu Activity Non disponible.
METAR KOAJ 160855Z AUTO 00000KT 7SM OVC020 21/18 A3005 RMK AO1 57014

More Conditions Fewer Conditions

Pression 30.05 pouce
Visibilité 7.0 Miles terrestres
Nuages Couvert 2000 ft
Point de rosée 64 ° F
Humidité 83%
Précipitations 0.00 pouce
Profondeur de la couche neigeuse Non disponible.
UV 0 sur 12
Pollen 6.10 sur 12
Qualité de l'air Non disponible.
Flu Activity Non disponible.
METAR KOAJ 160855Z AUTO 00000KT 7SM OVC020 21/18 A3005 RMK AO1 57014

More Conditions Fewer Conditions

10-Day Weather Forecast

Almanac

Astronomie

Sep. 16, 2014 Lever Coucher
Temps réel 06:53 EDT 19:15 EDT
Crépuscule civil 06:28 EDT 19:40 EDT
Crépuscule nautique 05:58 EDT 20:09 EDT
Crépuscule astronomique 05:28 EDT 20:40 EDT
Lune 00:11 EDT 14:26 EDT
Durée de lumière visible 13h 12m
Longueur du jour
12h 21m
Tomorrow will be 2m 9s shorter.
Lune gibbeuse décroissante, 47% of the Moon is Illuminated
Aujourd'hui
Lune gibbeuse décroissante
Sep 24
Nouveau
Oct 1
Premier quartier
Oct 8
Pleine lune
Oct 15
Dernier quartier

Extrêmes aujourd'hui

State Highs State Lows

Community

WunderPhotos

Upload Photos

1,753,714 Photos téléchargées !

WunderBlogs® & News

Nearby

Épaisseur de neige

Station Depth Altitude
Pas de nouvelles chutes de neige

Activité sismique

Ville Distance Mag. Time & Date
No recent earthquake activity has been reported nearby.
Minimum magnitude displayed is 2.5.

Températures des eaux côtières

Lieu Température
Beaufort, NC 79.0 ° F
Johnny Mercer Pier, Wrightsville Beach, NC 82.0 ° F
Hatteras, NC 77.0 ° F
Oregon Inlet Marina, NC 73.9 ° F

Stations météo à proximité